Time;durP1;ratioP1;P1;durP2;ratioP2;P2;SDS_P1;SDS_P2;PMS_P1;PMS_P2;Temp;Humidity;BMP_temperature;BMP_pressure;BME280_temperature;BME280_humidity;BME280_pressure;Samples;Min_cycle;Max_cycle;Signal;HPM_P1;HPM_P2
2021/10/15 00:00:58;;;;;;;3.28;2.72;;;9.60;99.90;;;;;;5040227;28;20045;-89
2021/10/15 00:03:25;;;;;;;3.08;2.88;;;9.70;99.90;;;;;;5071872;28;20037;-89
2021/10/15 00:05:52;;;;;;;4.30;3.40;;;9.70;99.90;;;;;;5043260;28;20055;-89
2021/10/15 00:08:19;;;;;;;5.20;3.20;;;9.70;99.90;;;;;;5038877;28;20051;-89
2021/10/15 00:10:46;;;;;;;4.20;3.28;;;9.70;99.90;;;;;;5038925;28;20088;-89
2021/10/15 00:13:13;;;;;;;3.15;2.95;;;9.70;99.90;;;;;;5038611;28;20125;-89
2021/10/15 00:15:40;;;;;;;4.00;3.55;;;9.70;99.90;;;;;;5038889;28;20091;-89
2021/10/15 00:18:07;;;;;;;3.22;3.03;;;9.70;99.90;;;;;;5038698;28;20048;-89
2021/10/15 00:20:33;;;;;;;5.45;3.38;;;9.70;99.90;;;;;;5038744;28;20080;-88
2021/10/15 00:23:00;;;;;;;4.20;2.78;;;9.60;99.90;;;;;;5038576;28;20136;-89
2021/10/15 00:25:27;;;;;;;3.28;3.08;;;9.60;99.90;;;;;;5038644;28;20055;-89
2021/10/15 00:27:54;;;;;;;2.83;2.63;;;9.70;99.90;;;;;;5056051;28;20053;-89
2021/10/15 00:30:21;;;;;;;3.58;3.25;;;9.60;99.90;;;;;;5037025;28;20128;-89
2021/10/15 00:32:47;;;;;;;5.00;3.25;;;9.60;99.90;;;;;;5038777;28;20056;-89
2021/10/15 00:35:14;;;;;;;3.67;3.45;;;9.60;99.90;;;;;;5055708;28;20099;-89
2021/10/15 00:37:41;;;;;;;8.05;3.80;;;9.70;99.90;;;;;;5038018;28;20231;-89
2021/10/15 00:40:09;;;;;;;4.32;3.55;;;9.50;99.90;;;;;;5038043;28;20089;-89
2021/10/15 00:42:37;;;;;;;5.63;3.42;;;9.60;99.90;;;;;;5055905;28;20464;-89
2021/10/15 00:45:04;;;;;;;4.25;3.47;;;9.50;99.90;;;;;;5055823;28;20127;-88
2021/10/15 00:47:31;;;;;;;3.78;3.47;;;9.60;99.90;;;;;;5038157;28;20094;-89
2021/10/15 00:49:58;;;;;;;5.78;3.60;;;9.60;99.90;;;;;;5038304;28;20083;-89
2021/10/15 00:52:27;;;;;;;3.78;3.50;;;9.60;99.90;;;;;;5038189;28;20066;-88
2021/10/15 00:54:55;;;;;;;4.10;3.70;;;9.60;99.90;;;;;;5037746;28;20045;-89
2021/10/15 00:57:22;;;;;;;4.60;3.95;;;9.60;99.90;;;;;;5055053;28;20049;-89
2021/10/15 00:59:50;;;;;;;4.75;3.58;;;9.60;99.90;;;;;;5037780;28;20491;-89
2021/10/15 01:02:18;;;;;;;4.75;3.50;;;9.60;99.90;;;;;;5055176;28;20140;-89
2021/10/15 01:04:46;;;;;;;4.60;3.65;;;9.50;99.90;;;;;;5037821;28;20124;-89
2021/10/15 01:07:13;;;;;;;3.95;3.67;;;9.60;99.90;;;;;;5037659;28;20076;-89
2021/10/15 01:09:40;;;;;;;4.32;3.70;;;9.60;99.90;;;;;;5055050;28;20436;-89
2021/10/15 01:12:07;;;;;;;6.95;3.63;;;9.60;99.90;;;;;;5054144;28;20493;-89
2021/10/15 01:14:34;;;;;;;3.65;3.38;;;9.60;99.90;;;;;;5037829;28;20052;-89
2021/10/15 01:17:05;;;;;;;5.35;3.53;;;9.60;99.90;;;;;;5038353;28;20135;-89
2021/10/15 01:19:33;;;;;;;4.30;3.53;;;9.60;99.90;;;;;;5055966;28;20049;-89
2021/10/15 01:22:05;;;;;;;3.97;3.60;;;9.60;99.90;;;;;;5056237;28;20132;-89
2021/10/15 01:24:32;;;;;;;3.60;3.30;;;9.60;99.90;;;;;;5037503;28;20048;-88
2021/10/15 01:27:09;;;;;;;4.07;3.78;;;9.60;99.90;;;;;;5037180;28;20136;-89
2021/10/15 01:29:38;;;;;;;3.83;3.53;;;9.60;99.90;;;;;;5054718;28;20127;-89
2021/10/15 01:32:07;;;;;;;3.63;3.40;;;9.60;99.90;;;;;;5036916;28;20067;-89
2021/10/15 01:34:35;;;;;;;4.18;3.80;;;9.50;99.90;;;;;;5054607;28;20049;-89
2021/10/15 01:37:02;;;;;;;3.63;3.42;;;9.40;99.90;;;;;;5037196;28;20045;-88
2021/10/15 01:39:29;;;;;;;3.85;3.55;;;9.40;99.90;;;;;;5054186;28;20059;-88
2021/10/15 01:41:56;;;;;;;4.50;3.45;;;9.30;99.90;;;;;;5054136;28;20056;-88
2021/10/15 01:44:23;;;;;;;4.05;3.42;;;9.20;99.90;;;;;;5037014;28;20458;-89
2021/10/15 01:46:49;;;;;;;3.47;3.22;;;9.10;99.90;;;;;;5053800;28;20055;-89
2021/10/15 01:49:16;;;;;;;3.65;3.40;;;8.90;99.90;;;;;;5037086;28;20148;-89
2021/10/15 01:51:44;;;;;;;4.03;3.67;;;8.80;99.90;;;;;;5054136;28;20059;-88
2021/10/15 01:54:11;;;;;;;4.13;3.80;;;8.70;99.90;;;;;;5054112;28;20489;-88
2021/10/15 01:56:37;;;;;;;4.05;3.67;;;8.60;99.90;;;;;;5054033;28;20057;-89
2021/10/15 01:59:06;;;;;;;5.75;5.20;;;8.50;99.90;;;;;;5036903;28;20106;-89
2021/10/15 02:01:33;;;;;;;6.88;6.18;;;8.40;99.90;;;;;;5053801;28;20063;-89
2021/10/15 02:04:00;;;;;;;8.48;7.57;;;8.30;99.90;;;;;;5037119;28;20049;-89
2021/10/15 02:06:27;;;;;;;13.07;9.57;;;8.30;99.90;;;;;;5037031;28;20049;-88
2021/10/15 02:08:54;;;;;;;13.35;10.93;;;8.40;99.90;;;;;;5036774;28;20095;-89
2021/10/15 02:11:20;;;;;;;16.00;9.65;;;8.30;99.90;;;;;;5036713;28;20132;-88
2021/10/15 02:13:47;;;;;;;12.68;10.70;;;8.30;99.90;;;;;;5054440;28;20052;-88
2021/10/15 02:16:14;;;;;;;17.48;9.60;;;8.30;99.90;;;;;;5036736;28;20102;-89
2021/10/15 02:18:41;;;;;;;16.80;11.20;;;8.20;99.90;;;;;;5053989;28;20049;-88
2021/10/15 02:21:08;;;;;;;12.10;10.40;;;8.20;99.90;;;;;;5053685;28;20116;-88
2021/10/15 02:23:35;;;;;;;15.20;10.35;;;8.10;99.90;;;;;;5054131;28;20049;-89
2021/10/15 02:26:02;;;;;;;9.63;8.68;;;8.00;99.90;;;;;;5053861;28;20048;-89
2021/10/15 02:28:29;;;;;;;12.38;10.75;;;7.90;99.90;;;;;;5053769;28;20103;-88
2021/10/15 02:30:56;;;;;;;14.27;10.68;;;7.90;99.90;;;;;;5036626;28;20049;-88
2021/10/15 02:33:22;;;;;;;16.05;11.13;;;7.70;99.90;;;;;;5053941;28;20079;-89
2021/10/15 02:35:50;;;;;;;17.42;11.73;;;7.70;99.90;;;;;;5037737;28;20140;-89
2021/10/15 02:38:16;;;;;;;19.80;12.57;;;7.80;99.90;;;;;;5048993;28;20097;-88
2021/10/15 02:40:44;;;;;;;18.65;13.43;;;7.60;99.90;;;;;;5060848;28;20095;-89
2021/10/15 02:43:11;;;;;;;20.13;12.77;;;7.60;99.90;;;;;;5036466;28;20048;-88
2021/10/15 02:45:39;;;;;;;21.75;12.85;;;7.70;99.90;;;;;;5036230;28;20053;-89
2021/10/15 02:48:06;;;;;;;20.40;13.07;;;7.70;99.90;;;;;;5036221;28;20045;-89
2021/10/15 02:50:33;;;;;;;19.55;13.45;;;7.70;99.90;;;;;;5036168;28;20075;-88
2021/10/15 02:53:00;;;;;;;23.25;14.98;;;7.70;99.90;;;;;;5036969;28;20049;-89
2021/10/15 02:55:27;;;;;;;27.70;17.50;;;7.80;99.90;;;;;;5040203;28;20052;-89
2021/10/15 02:57:54;;;;;;;18.95;15.02;;;7.80;99.90;;;;;;5057643;28;20056;-89
2021/10/15 03:00:20;;;;;;;20.52;15.63;;;7.90;99.90;;;;;;5040066;28;20051;-89
2021/10/15 03:02:47;;;;;;;26.90;18.27;;;7.90;99.90;;;;;;5057671;28;20052;-89
2021/10/15 03:05:14;;;;;;;31.90;18.35;;;8.00;99.90;;;;;;5056598;28;20041;-89
2021/10/15 03:07:41;;;;;;;30.67;19.60;;;8.00;99.90;;;;;;5040050;28;20136;-89
2021/10/15 03:10:08;;;;;;;23.05;17.98;;;8.00;99.90;;;;;;5057302;28;20140;-88
2021/10/15 03:12:37;;;;;;;30.95;20.20;;;8.10;99.90;;;;;;5040097;28;20055;-89
2021/10/15 03:15:06;;;;;;;26.45;17.20;;;8.10;99.90;;;;;;5057292;28;20063;-89
2021/10/15 03:17:33;;;;;;;22.35;17.95;;;8.10;99.90;;;;;;5039847;28;20075;-89
2021/10/15 03:20:00;;;;;;;26.95;18.38;;;8.10;99.90;;;;;;5040423;28;20052;-89
2021/10/15 03:22:28;;;;;;;25.30;18.50;;;8.10;99.90;;;;;;5058839;28;20044;-89
2021/10/15 03:24:55;;;;;;;25.30;18.60;;;8.10;99.90;;;;;;5039017;28;20049;-90
2021/10/15 03:27:22;;;;;;;26.33;19.50;;;8.10;99.90;;;;;;5038889;28;20049;-92
2021/10/15 03:29:48;;;;;;;28.63;21.20;;;8.20;99.90;;;;;;5039280;28;20395;-90
2021/10/15 03:32:15;;;;;;;25.60;20.05;;;8.30;99.90;;;;;;5039826;28;20064;-95
2021/10/15 03:34:45;;;;;;;28.30;20.48;;;8.40;99.90;;;;;;5056347;28;20280;-90
2021/10/15 03:37:12;;;;;;;27.98;18.33;;;8.50;99.90;;;;;;5058544;28;20555;-89
2021/10/15 03:39:39;;;;;;;27.80;17.88;;;8.40;99.90;;;;;;5059346;28;20057;-90
2021/10/15 03:42:06;;;;;;;25.88;15.93;;;8.40;99.90;;;;;;5057633;28;20059;-90
2021/10/15 03:44:32;;;;;;;18.90;16.00;;;8.40;99.90;;;;;;5039654;28;20047;-95
2021/10/15 03:46:59;;;;;;;21.25;15.77;;;8.40;99.90;;;;;;5039034;28;20049;-92
2021/10/15 03:49:26;;;;;;;22.13;16.10;;;8.50;99.90;;;;;;5056711;28;20049;-90
2021/10/15 03:51:53;;;;;;;22.88;16.45;;;8.50;99.90;;;;;;5041470;28;20053;-92
2021/10/15 03:54:19;;;;;;;20.73;14.20;;;8.60;99.90;;;;;;5052447;28;20100;-87
2021/10/15 03:56:46;;;;;;;23.73;15.98;;;8.70;99.90;;;;;;5060792;28;20072;-89
2021/10/15 03:59:14;;;;;;;15.73;14.07;;;8.70;99.90;;;;;;5055094;28;20131;-88
2021/10/15 04:01:41;;;;;;;16.55;13.20;;;8.80;99.90;;;;;;5056874;28;20052;-90
2021/10/15 04:04:07;;;;;;;15.57;12.55;;;8.80;99.90;;;;;;5057902;28;20394;-90
2021/10/15 04:06:34;;;;;;;18.98;12.32;;;8.90;99.90;;;;;;5055997;28;20049;-89
2021/10/15 04:09:01;;;;;;;25.52;13.85;;;8.90;99.90;;;;;;5056016;28;20045;-89
2021/10/15 04:11:28;;;;;;;18.88;11.90;;;8.90;99.90;;;;;;5038153;28;20049;-89
2021/10/15 04:13:55;;;;;;;17.27;12.50;;;8.90;99.90;;;;;;5055878;28;20109;-90
2021/10/15 04:16:22;;;;;;;21.15;12.80;;;9.00;99.90;;;;;;5038559;28;20061;-89
2021/10/15 04:18:49;;;;;;;18.33;12.15;;;8.90;99.90;;;;;;5038492;28;20049;-89
2021/10/15 04:21:16;;;;;;;14.65;12.20;;;9.00;99.90;;;;;;5056003;28;20503;-90
2021/10/15 04:23:43;;;;;;;14.90;11.93;;;8.90;99.90;;;;;;5038514;28;20049;-90
2021/10/15 04:26:10;;;;;;;16.70;11.63;;;8.90;99.90;;;;;;5038201;28;20135;-89
2021/10/15 04:28:39;;;;;;;17.23;10.02;;;9.00;99.90;;;;;;5038746;28;20053;-88
2021/10/15 04:31:06;;;;;;;17.67;10.65;;;9.10;99.90;;;;;;5038404;28;20316;-90
2021/10/15 04:33:33;;;;;;;12.02;10.77;;;9.00;99.90;;;;;;5039238;28;20162;-92
2021/10/15 04:36:04;;;;;;;13.63;10.68;;;9.00;99.90;;;;;;5038587;28;20057;-89
2021/10/15 04:38:31;;;;;;;17.65;10.93;;;9.10;99.90;;;;;;5054694;28;20139;-88
2021/10/15 04:40:58;;;;;;;11.85;10.32;;;9.00;99.90;;;;;;5038877;28;20081;-88
2021/10/15 04:43:25;;;;;;;10.88;9.77;;;9.00;99.90;;;;;;5037696;28;20044;-89
2021/10/15 04:45:51;;;;;;;12.75;11.23;;;8.90;99.90;;;;;;5055676;28;20041;-90
2021/10/15 04:48:18;;;;;;;14.95;10.40;;;9.00;99.90;;;;;;5055290;28;20057;-88
2021/10/15 04:50:45;;;;;;;17.63;10.63;;;8.90;99.90;;;;;;5055366;28;20083;-89
2021/10/15 04:53:12;;;;;;;15.27;10.60;;;8.80;99.90;;;;;;5055376;28;20507;-89
2021/10/15 04:55:39;;;;;;;19.83;10.77;;;8.80;99.90;;;;;;5055107;28;20056;-90
2021/10/15 04:58:05;;;;;;;12.10;9.80;;;8.80;99.90;;;;;;5038300;28;20041;-89
2021/10/15 05:00:34;;;;;;;13.13;11.27;;;8.80;99.90;;;;;;5055403;28;20124;-89
2021/10/15 05:03:01;;;;;;;12.43;10.40;;;8.90;99.90;;;;;;5037582;28;20048;-89
2021/10/15 05:05:33;;;;;;;22.48;10.48;;;8.80;99.90;;;;;;5038215;28;20053;-87
2021/10/15 05:08:00;;;;;;;20.60;11.60;;;8.80;99.90;;;;;;5055137;28;20048;-88
2021/10/15 05:10:30;;;;;;;11.32;10.10;;;8.70;99.90;;;;;;5038781;28;20045;-89
2021/10/15 05:12:57;;;;;;;16.25;11.32;;;8.70;99.90;;;;;;5076806;28;20048;-88
2021/10/15 05:15:24;;;;;;;14.77;10.98;;;8.60;99.90;;;;;;5048529;28;20053;-89
2021/10/15 05:17:51;;;;;;;13.95;10.35;;;8.60;99.90;;;;;;5037239;28;20067;-88
2021/10/15 05:20:19;;;;;;;18.85;10.40;;;8.50;99.90;;;;;;5054752;28;20091;-88
2021/10/15 05:22:46;;;;;;;17.25;11.13;;;8.60;99.90;;;;;;5054768;28;20473;-88
2021/10/15 05:25:14;;;;;;;15.43;10.55;;;8.50;99.90;;;;;;5037016;28;20049;-88
2021/10/15 05:27:41;;;;;;;16.58;9.70;;;8.40;99.90;;;;;;5037002;28;20045;-88
2021/10/15 05:30:09;;;;;;;17.05;10.05;;;8.30;99.90;;;;;;5036831;28;20049;-88
2021/10/15 05:32:37;;;;;;;16.73;9.55;;;8.30;99.90;;;;;;5037052;28;20074;-88
2021/10/15 05:35:05;;;;;;;15.75;9.15;;;8.30;99.90;;;;;;5036882;28;20044;-88
2021/10/15 05:37:32;;;;;;;15.65;10.30;;;8.20;99.90;;;;;;5036930;28;20493;-88
2021/10/15 05:39:59;;;;;;;16.73;11.55;;;8.10;99.90;;;;;;5036484;28;20053;-89
2021/10/15 05:42:26;;;;;;;19.27;13.10;;;8.10;99.90;;;;;;5053908;28;20049;-89
2021/10/15 05:44:53;;;;;;;27.02;13.40;;;8.20;99.90;;;;;;5053955;28;20053;-89
2021/10/15 05:47:22;;;;;;;20.30;11.88;;;8.10;99.90;;;;;;5036802;28;20519;-89
2021/10/15 05:49:48;;;;;;;16.48;8.48;;;8.00;99.90;;;;;;5053057;28;20057;-88
2021/10/15 05:52:18;;;;;;;16.05;10.07;;;8.00;99.90;;;;;;5036522;28;20045;-89
2021/10/15 05:54:53;;;;;;;23.40;14.15;;;7.90;99.90;;;;;;5036757;28;20049;-88
2021/10/15 05:59:59;;;;;;;17.08;13.02;;;8.00;99.90;;;;;;5053916;28;20057;-91
2021/10/15 06:02:35;;;;;;;16.52;12.32;;;8.00;99.90;;;;;;5039016;28;20044;-88
2021/10/15 06:15:44;;;;;;;10.55;8.38;;;8.80;99.90;;;;;;5054601;28;20082;-89
2021/10/15 06:18:17;;;;;;;11.07;8.15;;;8.80;99.90;;;;;;5036832;28;20055;-89
2021/10/15 06:20:45;;;;;;;;;;;8.80;99.90;;;;;;5038319;28;20076;-90
2021/10/15 06:23:14;;;;;;;11.05;8.55;;;8.90;99.90;;;;;;5037784;28;19979;-89
2021/10/15 06:25:41;;;;;;;10.18;8.07;;;9.00;99.90;;;;;;5036753;28;20524;-89
2021/10/15 06:28:10;;;;;;;8.52;7.68;;;9.10;99.90;;;;;;5036664;28;20491;-88
2021/10/15 06:30:38;;;;;;;12.27;7.47;;;9.10;99.90;;;;;;5057164;28;20052;-92
2021/10/15 06:33:06;;;;;;;10.77;7.03;;;9.20;99.90;;;;;;5066931;28;20075;-88
2021/10/15 06:35:33;;;;;;;7.72;6.45;;;9.40;99.90;;;;;;5035869;28;20497;-89
2021/10/15 06:38:00;;;;;;;6.80;5.70;;;9.50;99.90;;;;;;5036259;28;20084;-90
2021/10/15 06:40:27;;;;;;;8.70;6.15;;;9.60;99.90;;;;;;5037901;28;20057;-90
2021/10/15 06:42:54;;;;;;;7.10;5.60;;;9.70;99.90;;;;;;5052246;28;20055;-89
2021/10/15 06:45:21;;;;;;;7.63;5.72;;;9.90;99.90;;;;;;5054067;28;20136;-92
2021/10/15 06:47:48;;;;;;;5.68;5.05;;;9.90;99.90;;;;;;5036248;28;20053;-91
2021/10/15 06:50:15;;;;;;;6.40;4.93;;;10.00;99.90;;;;;;5053377;28;20092;-92
2021/10/15 06:52:48;;;;;;;4.72;4.18;;;10.10;99.90;;;;;;5053777;28;20048;-89
2021/10/15 06:55:18;;;;;;;;;;;10.20;99.90;;;;;;5054015;28;20398;-90
2021/10/15 06:57:45;;;;;;;6.55;4.43;;;10.30;99.90;;;;;;5035742;28;20266;-90
2021/10/15 07:00:14;;;;;;;4.35;3.95;;;10.40;99.90;;;;;;5036123;28;20082;-92
2021/10/15 07:02:41;;;;;;;5.22;4.28;;;10.40;99.90;;;;;;5035973;28;20478;-89
2021/10/15 07:05:10;;;;;;;4.50;4.07;;;10.50;99.90;;;;;;5035552;28;20076;-89
2021/10/15 07:07:37;;;;;;;5.38;3.80;;;10.50;99.90;;;;;;5035577;28;20048;-91
2021/10/15 07:10:05;;;;;;;3.83;3.53;;;10.50;99.90;;;;;;5053217;28;20144;-92
2021/10/15 07:12:40;;;;;;;3.42;3.22;;;10.50;99.90;;;;;;5035898;28;20516;-89
2021/10/15 07:15:09;;;;;;;3.80;3.42;;;10.60;99.90;;;;;;5035579;28;20454;-89
2021/10/15 07:17:36;;;;;;;4.20;3.38;;;10.60;99.90;;;;;;5053022;28;20059;-89
2021/10/15 07:20:05;;;;;;;4.88;3.13;;;10.70;99.90;;;;;;5036071;28;20503;-90
2021/10/15 07:22:32;;;;;;;5.63;3.88;;;10.80;99.90;;;;;;5052817;28;20045;-92
2021/10/15 07:24:58;;;;;;;5.45;3.33;;;10.90;99.90;;;;;;5052833;28;20477;-95
2021/10/15 07:27:25;;;;;;;3.75;3.45;;;11.00;99.90;;;;;;5035566;28;20135;-89
2021/10/15 07:29:52;;;;;;;3.55;3.17;;;11.00;99.90;;;;;;5053737;28;20464;-95
2021/10/15 07:32:19;;;;;;;3.30;2.80;;;11.10;99.90;;;;;;5053472;28;20087;-89
2021/10/15 07:34:46;;;;;;;3.40;2.95;;;11.20;99.90;;;;;;5037208;28;20485;-90
2021/10/15 07:37:15;;;;;;;4.18;3.30;;;11.20;99.90;;;;;;5037281;28;20560;-93
2021/10/15 07:39:45;;;;;;;4.13;3.30;;;11.20;99.90;;;;;;5056256;28;20071;-89
2021/10/15 07:42:12;;;;;;;5.93;3.00;;;11.30;99.90;;;;;;5056399;28;20041;-91
2021/10/15 07:44:38;;;;;;;3.20;2.88;;;11.30;99.90;;;;;;5040189;28;20308;-91
2021/10/15 07:47:05;;;;;;;5.70;3.65;;;11.30;99.90;;;;;;5050993;28;20084;-94
2021/10/15 07:49:34;;;;;;;5.18;3.28;;;11.30;99.90;;;;;;5079831;28;20049;-92
2021/10/15 07:52:08;;;;;;;4.10;3.78;;;11.30;99.90;;;;;;5043558;28;20048;-93
2021/10/15 07:54:35;;;;;;;4.07;3.30;;;11.40;99.90;;;;;;5040399;28;20140;-93
2021/10/15 07:57:04;;;;;;;8.93;3.90;;;11.40;99.90;;;;;;5040551;28;20481;-90
2021/10/15 07:59:32;;;;;;;6.85;3.95;;;11.50;99.90;;;;;;5058297;28;20059;-94
2021/10/15 08:01:59;;;;;;;6.35;3.45;;;11.50;99.90;;;;;;5039307;28;20450;-92
2021/10/15 08:04:29;;;;;;;5.28;4.55;;;11.70;99.90;;;;;;5045474;28;20049;-91
2021/10/15 08:06:57;;;;;;;5.03;3.80;;;11.70;99.90;;;;;;5044043;28;20080;-92
2021/10/15 08:09:23;;;;;;;4.32;3.85;;;11.80;99.90;;;;;;5045287;28;20057;-92
2021/10/15 08:11:51;;;;;;;5.55;4.55;;;11.80;99.90;;;;;;5045469;28;20068;-95
2021/10/15 08:14:20;;;;;;;4.35;4.05;;;11.90;99.90;;;;;;5044976;28;20060;-92
2021/10/15 08:16:46;;;;;;;4.40;3.92;;;12.30;99.90;;;;;;5044895;28;20136;-94
2021/10/15 08:19:33;;;;;;;4.88;4.22;;;12.80;99.90;;;;;;5047877;28;20055;-95
2021/10/15 08:22:03;;;;;;;8.63;4.72;;;13.10;99.90;;;;;;5045707;28;20049;-94
2021/10/15 08:24:34;;;;;;;5.70;4.70;;;13.20;99.90;;;;;;5047324;28;20063;-94
2021/10/15 08:27:01;;;;;;;6.75;4.00;;;13.10;99.90;;;;;;5047249;28;20045;-94
2021/10/15 08:29:31;;;;;;;5.07;4.57;;;13.10;99.90;;;;;;5046989;28;20072;-95
2021/10/15 08:31:58;;;;;;;7.95;4.60;;;13.20;99.90;;;;;;5047907;28;20079;-94
2021/10/15 08:34:27;;;;;;;5.55;3.92;;;13.30;99.90;;;;;;5049861;28;20059;-95
2021/10/15 08:36:55;;;;;;;5.30;4.05;;;13.40;99.90;;;;;;5044303;28;20069;-93
2021/10/15 08:39:32;;;;;;;4.80;4.32;;;13.60;99.90;;;;;;5046770;28;20068;-96
2021/10/15 08:42:03;;;;;;;;;;;13.70;99.90;;;;;;5046207;28;20036;-94
2021/10/15 08:44:38;;;;;;;5.10;4.25;;;13.80;99.90;;;;;;5050673;28;19984;-96
2021/10/15 08:47:06;;;;;;;10.77;3.78;;;14.90;99.90;;;;;;5066396;28;20068;-94
2021/10/15 08:49:53;;;;;;;6.07;3.70;;;16.20;99.90;;;;;;5049237;28;20049;-94
2021/10/15 08:52:20;;;;;;;4.60;3.50;;;16.50;99.90;;;;;;5043420;28;20069;-95
2021/10/15 08:54:47;;;;;;;7.65;3.50;;;17.40;99.90;;;;;;5042517;28;20051;-94
2021/10/15 08:57:15;;;;;;;5.18;3.28;;;18.20;99.90;;;;;;5044409;28;20052;-93
2021/10/15 08:59:50;;;;;;;4.35;3.45;;;18.00;99.90;;;;;;5062890;28;20052;-95
2021/10/15 09:02:20;;;;;;;4.03;3.67;;;18.50;99.90;;;;;;5047237;28;20052;-93
2021/10/15 09:04:51;;;;;;;4.15;3.22;;;18.50;99.30;;;;;;5073011;28;20053;-92
2021/10/15 09:07:22;;;;;;;4.82;3.17;;;17.70;99.90;;;;;;5059632;28;20116;-93
2021/10/15 09:10:05;;;;;;;6.40;3.67;;;17.60;99.90;;;;;;5043790;28;20060;-88
2021/10/15 09:12:46;;;;;;;4.78;4.00;;;17.40;99.90;;;;;;5044559;28;20049;-95
2021/10/15 09:15:16;;;;;;;6.05;3.33;;;16.70;99.90;;;;;;5043622;28;20052;-92
2021/10/15 09:17:52;;;;;;;3.63;3.30;;;16.80;99.90;;;;;;5043782;28;20168;-96
2021/10/15 09:20:32;;;;;;;3.78;3.28;;;16.40;99.90;;;;;;5045646;28;20079;-96
2021/10/15 09:23:09;;;;;;;3.70;3.40;;;16.20;99.90;;;;;;5045689;28;20476;-92
2021/10/15 09:25:39;;;;;;;4.63;3.53;;;16.20;99.90;;;;;;5044720;28;20045;-94
2021/10/15 09:28:18;;;;;;;5.70;3.90;;;15.60;99.90;;;;;;5043927;28;20073;-94
2021/10/15 09:30:54;;;;;;;5.32;3.90;;;15.30;99.90;;;;;;5062037;28;20052;-96
2021/10/15 09:33:21;;;;;;;5.13;4.60;;;14.90;99.90;;;;;;5061241;28;20048;-91
2021/10/15 09:35:49;;;;;;;5.68;4.65;;;14.40;99.90;;;;;;5063158;28;20068;-95
2021/10/15 09:38:16;;;;;;;4.32;3.90;;;13.90;99.90;;;;;;5043264;28;20044;-95
2021/10/15 09:40:48;;;;;;;4.43;4.10;;;13.90;99.90;;;;;;5063860;28;20048;-96
2021/10/15 09:43:15;;;;;;;4.38;3.97;;;14.00;99.90;;;;;;5043733;28;20045;-93
2021/10/15 09:45:45;;;;;;;10.70;3.95;;;14.20;99.90;;;;;;5045203;28;20045;-94
2021/10/15 09:48:31;;;;;;;8.98;4.40;;;14.10;99.90;;;;;;5042133;28;20114;-95
2021/10/15 09:51:19;;;;;;;5.47;4.32;;;14.00;99.90;;;;;;5042660;28;20087;-93
2021/10/15 09:54:14;;;;;;;5.40;4.00;;;13.90;99.90;;;;;;5041435;28;20117;-94
2021/10/15 09:56:52;;;;;;;10.52;4.57;;;14.50;99.90;;;;;;5059648;28;20509;-95
2021/10/15 09:59:19;;;;;;;6.22;3.65;;;15.10;99.90;;;;;;5040498;28;20052;-94
2021/10/15 10:01:46;;;;;;;4.20;3.83;;;15.40;99.90;;;;;;5058932;28;20139;-95
2021/10/15 10:04:14;;;;;;;4.45;3.47;;;15.80;99.90;;;;;;5060653;28;20053;-94
2021/10/15 10:06:41;;;;;;;4.43;3.42;;;15.70;99.90;;;;;;5060140;28;20076;-94
2021/10/15 10:09:09;;;;;;;3.78;3.47;;;15.90;99.90;;;;;;5044832;28;20056;-94
2021/10/15 10:11:36;;;;;;;5.68;3.53;;;16.40;99.90;;;;;;5044503;28;20041;-92
2021/10/15 10:14:19;;;;;;;4.03;3.25;;;16.70;99.90;;;;;;5061626;28;20055;-95
2021/10/15 10:16:48;;;;;;;5.25;3.50;;;16.70;99.90;;;;;;5065054;28;20080;-96
2021/10/15 10:19:20;;;;;;;6.22;3.58;;;16.60;99.90;;;;;;5048627;28;20075;-94
2021/10/15 10:21:48;;;;;;;6.15;3.83;;;16.50;99.90;;;;;;5052161;28;20052;-93
2021/10/15 10:24:25;;;;;;;3.83;3.45;;;15.80;99.90;;;;;;5061108;28;20049;-95
2021/10/15 10:26:57;;;;;;;4.00;3.10;;;16.20;99.90;;;;;;5061864;28;20049;-95
2021/10/15 10:29:27;;;;;;;4.78;3.30;;;17.60;99.90;;;;;;5042291;28;20136;-96
2021/10/15 10:32:14;;;;;;;6.68;3.22;;;17.30;99.90;;;;;;5063023;28;20112;-95
2021/10/15 10:34:41;;;;;;;3.30;3.05;;;17.40;99.90;;;;;;5044292;28;20048;-93
2021/10/15 10:37:11;;;;;;;3.67;3.33;;;16.80;99.90;;;;;;5063068;28;20045;-95
2021/10/15 10:40:10;;;;;;;3.92;3.50;;;16.30;99.90;;;;;;5049544;28;20140;-95
2021/10/15 10:43:04;;;;;;;4.65;2.85;;;15.80;99.90;;;;;;5049881;28;20056;-96
2021/10/15 10:45:33;;;;;;;4.05;2.83;;;16.00;99.90;;;;;;5043735;28;20111;-93
2021/10/15 10:48:05;;;;;;;3.28;3.00;;;16.00;99.90;;;;;;5044043;28;20107;-94
2021/10/15 10:50:32;;;;;;;32.30;4.05;;;15.70;99.90;;;;;;5042256;28;20052;-95
2021/10/15 10:52:59;;;;;;;4.20;2.92;;;15.60;99.90;;;;;;5042098;28;20108;-93
2021/10/15 10:55:47;;;;;;;5.85;3.28;;;15.50;99.90;;;;;;5054057;28;20053;-96
2021/10/15 10:58:35;;;;;;;3.78;3.47;;;15.20;99.90;;;;;;5046703;28;20049;-94
2021/10/15 11:01:29;;;;;;;4.50;3.00;;;15.00;99.90;;;;;;5040506;28;20143;-94
2021/10/15 11:03:58;;;;;;;5.93;3.72;;;14.70;99.90;;;;;;5038950;28;20049;-93
2021/10/15 11:06:58;;;;;;;5.47;3.58;;;14.30;99.90;;;;;;5041740;28;20117;-95
2021/10/15 11:09:40;;;;;;;3.97;2.85;;;14.30;99.90;;;;;;5039932;28;20533;-94
2021/10/15 11:12:09;;;;;;;3.65;2.92;;;14.00;99.90;;;;;;5038547;28;20045;-93
2021/10/15 11:14:55;;;;;;;3.40;3.13;;;13.90;99.90;;;;;;5041699;28;20073;-91
2021/10/15 11:17:26;;;;;;;9.77;3.63;;;13.70;99.90;;;;;;5046562;28;20056;-96
2021/10/15 11:20:10;;;;;;;3.42;2.80;;;13.60;99.90;;;;;;5045814;28;20045;-91
2021/10/15 11:22:40;;;;;;;9.98;3.55;;;13.50;99.90;;;;;;5041621;28;20549;-92
2021/10/15 11:25:11;;;;;;;6.25;3.53;;;13.40;99.90;;;;;;5042367;28;20079;-92
2021/10/15 11:27:41;;;;;;;7.30;3.15;;;13.20;99.90;;;;;;5042943;28;20524;-94
2021/10/15 11:30:11;;;;;;;7.95;3.60;;;13.10;99.90;;;;;;5046745;28;20116;-96
2021/10/15 11:32:45;;;;;;;8.80;3.20;;;13.10;99.90;;;;;;5043218;28;20076;-94
2021/10/15 11:35:32;;;;;;;12.05;4.60;;;13.20;99.90;;;;;;5042043;28;20052;-93
2021/10/15 11:38:27;;;;;;;4.43;3.35;;;13.10;99.90;;;;;;5064632;28;20072;-89
2021/10/15 11:41:17;;;;;;;5.07;3.60;;;13.20;99.90;;;;;;5064608;28;20029;-92
2021/10/15 11:43:44;;;;;;;5.53;3.58;;;13.40;99.90;;;;;;5057085;28;20148;-88
2021/10/15 11:46:15;;;;;;;5.13;3.47;;;13.60;99.90;;;;;;5039266;28;20479;-92
2021/10/15 11:48:45;;;;;;;4.00;3.38;;;13.90;99.90;;;;;;5061843;28;20060;-90
2021/10/15 11:51:18;;;;;;;7.82;3.45;;;14.00;99.90;;;;;;5041184;28;20099;-92
2021/10/15 11:53:47;;;;;;;4.60;3.10;;;14.00;99.90;;;;;;5043394;28;20055;-92
2021/10/15 11:56:19;;;;;;;7.15;3.20;;;13.90;99.90;;;;;;5041744;28;20056;-94
2021/10/15 11:58:48;;;;;;;5.03;3.45;;;14.00;99.90;;;;;;5059643;28;20391;-94
2021/10/15 12:01:21;;;;;;;3.60;3.00;;;13.90;99.90;;;;;;5058437;28;20135;-91
2021/10/15 12:03:58;;;;;;;10.30;3.70;;;14.10;99.90;;;;;;5041288;28;20493;-93
2021/10/15 12:06:27;;;;;;;5.97;2.92;;;14.20;99.90;;;;;;5059759;28;20048;-95
2021/10/15 12:09:01;;;;;;;3.72;3.20;;;14.30;99.90;;;;;;5062348;28;20048;-95
2021/10/15 12:11:40;;;;;;;4.53;3.40;;;14.20;99.90;;;;;;5043903;28;20044;-93
2021/10/15 12:14:30;;;;;;;7.25;2.92;;;14.30;99.90;;;;;;5062249;28;20061;-95
2021/10/15 12:17:03;;;;;;;6.05;2.92;;;14.20;99.90;;;;;;5046404;28;20533;-93
2021/10/15 12:19:40;;;;;;;4.80;3.10;;;14.20;99.90;;;;;;5045364;28;20084;-95
2021/10/15 12:22:20;;;;;;;10.00;3.40;;;14.30;99.90;;;;;;5044340;28;20079;-95
2021/10/15 12:24:50;;;;;;;4.78;3.00;;;14.20;99.90;;;;;;5063515;28;20095;-94
2021/10/15 12:27:26;;;;;;;4.15;3.05;;;14.00;99.90;;;;;;5046292;28;20083;-94
2021/10/15 12:29:55;;;;;;;3.33;2.90;;;13.90;99.90;;;;;;5045787;28;20057;-96
2021/10/15 12:32:36;;;;;;;5.13;3.03;;;13.90;99.90;;;;;;5046259;28;20044;-96
2021/10/15 12:35:22;;;;;;;3.10;2.85;;;13.80;99.90;;;;;;5044387;28;20083;-95
2021/10/15 12:37:52;;;;;;;11.68;3.70;;;13.80;99.90;;;;;;5044402;28;20059;-94
2021/10/15 12:40:38;;;;;;;6.45;3.17;;;13.80;99.90;;;;;;5063862;28;20060;-96
2021/10/15 12:43:18;;;;;;;5.20;2.92;;;13.90;99.90;;;;;;5045133;28;20052;-95
2021/10/15 12:45:49;;;;;;;8.35;2.88;;;14.10;99.90;;;;;;5063540;28;20072;-93
2021/10/15 12:48:23;;;;;;;7.50;3.17;;;14.30;99.90;;;;;;5061084;28;20076;-95
2021/10/15 12:50:59;;;;;;;5.05;2.50;;;14.50;99.90;;;;;;5062443;28;20072;-93
2021/10/15 12:53:33;;;;;;;7.40;2.92;;;14.50;99.90;;;;;;5044848;28;20055;-93
2021/10/15 12:56:00;;;;;;;2.88;2.45;;;14.40;99.90;;;;;;5071860;28;20044;-93
2021/10/15 12:58:29;;;;;;;4.97;2.78;;;14.30;99.90;;;;;;5077321;28;20103;-95
2021/10/15 13:01:03;;;;;;;3.40;2.50;;;14.10;99.90;;;;;;5042561;28;20055;-94
2021/10/15 13:03:31;;;;;;;5.18;2.22;;;14.10;99.90;;;;;;5042078;28;20073;-93
2021/10/15 13:06:02;;;;;;;6.35;2.65;;;14.10;99.90;;;;;;5041213;28;20045;-93
2021/10/15 13:08:29;;;;;;;3.00;2.00;;;14.10;99.90;;;;;;5060041;28;20049;-96
2021/10/15 13:10:56;;;;;;;6.45;2.20;;;14.00;99.90;;;;;;5043598;28;20120;-92
2021/10/15 13:13:22;;;;;;;3.45;2.20;;;14.00;99.90;;;;;;5042697;28;20111;-93